sensor_id;sensor_type;location;lat;lon;timestamp;P1;durP1;ratioP1;P2;durP2;ratioP2
1799;SDS011;919;48.274;12.292;2022-11-20T00:01:15;6.87;;;6.13;;
1799;SDS011;919;48.274;12.292;2022-11-20T00:03:43;9.43;;;6.00;;
1799;SDS011;919;48.274;12.292;2022-11-20T00:06:13;8.00;;;6.73;;
1799;SDS011;919;48.274;12.292;2022-11-20T00:08:41;9.30;;;7.20;;
1799;SDS011;919;48.274;12.292;2022-11-20T00:11:08;7.37;;;5.60;;
1799;SDS011;919;48.274;12.292;2022-11-20T00:13:37;7.00;;;5.47;;
1799;SDS011;919;48.274;12.292;2022-11-20T00:16:05;5.23;;;4.00;;
1799;SDS011;919;48.274;12.292;2022-11-20T00:18:33;4.43;;;3.83;;
1799;SDS011;919;48.274;12.292;2022-11-20T00:21:01;4.93;;;3.93;;
1799;SDS011;919;48.274;12.292;2022-11-20T00:23:30;6.47;;;4.47;;
1799;SDS011;919;48.274;12.292;2022-11-20T00:26:00;4.10;;;3.70;;
1799;SDS011;919;48.274;12.292;2022-11-20T00:28:28;3.87;;;3.47;;
1799;SDS011;919;48.274;12.292;2022-11-20T00:30:59;5.07;;;4.03;;
1799;SDS011;919;48.274;12.292;2022-11-20T00:33:27;3.73;;;3.43;;
1799;SDS011;919;48.274;12.292;2022-11-20T00:35:58;3.57;;;3.27;;
1799;SDS011;919;48.274;12.292;2022-11-20T00:38:26;3.47;;;3.17;;
1799;SDS011;919;48.274;12.292;2022-11-20T00:40:55;6.80;;;3.80;;
1799;SDS011;919;48.274;12.292;2022-11-20T00:43:23;3.57;;;3.17;;
1799;SDS011;919;48.274;12.292;2022-11-20T00:45:50;4.17;;;3.40;;
1799;SDS011;919;48.274;12.292;2022-11-20T00:48:21;3.90;;;2.80;;
1799;SDS011;919;48.274;12.292;2022-11-20T00:50:48;4.10;;;3.40;;
1799;SDS011;919;48.274;12.292;2022-11-20T00:53:15;3.07;;;2.70;;
1799;SDS011;919;48.274;12.292;2022-11-20T00:55:42;3.30;;;3.00;;
1799;SDS011;919;48.274;12.292;2022-11-20T00:58:10;3.70;;;3.40;;
1799;SDS011;919;48.274;12.292;2022-11-20T01:00:37;3.77;;;3.40;;
1799;SDS011;919;48.274;12.292;2022-11-20T01:03:03;7.23;;;4.07;;
1799;SDS011;919;48.274;12.292;2022-11-20T01:05:33;4.60;;;3.47;;
1799;SDS011;919;48.274;12.292;2022-11-20T01:08:00;3.63;;;3.30;;
1799;SDS011;919;48.274;12.292;2022-11-20T01:10:27;3.50;;;3.20;;
1799;SDS011;919;48.274;12.292;2022-11-20T01:12:54;3.13;;;2.73;;
1799;SDS011;919;48.274;12.292;2022-11-20T01:15:36;5.50;;;3.20;;
1799;SDS011;919;48.274;12.292;2022-11-20T01:18:03;4.83;;;2.80;;
1799;SDS011;919;48.274;12.292;2022-11-20T01:20:33;4.27;;;3.23;;
1799;SDS011;919;48.274;12.292;2022-11-20T01:23:00;5.33;;;3.43;;
1799;SDS011;919;48.274;12.292;2022-11-20T01:25:27;3.27;;;2.97;;
1799;SDS011;919;48.274;12.292;2022-11-20T01:27:54;3.33;;;3.03;;
1799;SDS011;919;48.274;12.292;2022-11-20T01:30:21;2.60;;;2.40;;
1799;SDS011;919;48.274;12.292;2022-11-20T01:32:49;4.30;;;3.13;;
1799;SDS011;919;48.274;12.292;2022-11-20T01:35:16;2.73;;;2.53;;
1799;SDS011;919;48.274;12.292;2022-11-20T01:37:43;4.10;;;3.37;;
1799;SDS011;919;48.274;12.292;2022-11-20T01:40:10;6.60;;;3.27;;
1799;SDS011;919;48.274;12.292;2022-11-20T01:42:37;4.37;;;3.10;;
1799;SDS011;919;48.274;12.292;2022-11-20T01:48:26;4.27;;;3.30;;
1799;SDS011;919;48.274;12.292;2022-11-20T01:50:58;5.70;;;2.87;;
1799;SDS011;919;48.274;12.292;2022-11-20T01:53:27;3.50;;;2.50;;
1799;SDS011;919;48.274;12.292;2022-11-20T01:55:58;4.93;;;3.20;;
1799;SDS011;919;48.274;12.292;2022-11-20T01:58:28;2.97;;;2.53;;
1799;SDS011;919;48.274;12.292;2022-11-20T02:00:57;3.43;;;3.13;;
1799;SDS011;919;48.274;12.292;2022-11-20T02:03:26;4.10;;;3.50;;
1799;SDS011;919;48.274;12.292;2022-11-20T02:05:54;4.50;;;3.40;;
1799;SDS011;919;48.274;12.292;2022-11-20T02:08:26;6.60;;;4.20;;
1799;SDS011;919;48.274;12.292;2022-11-20T02:10:54;4.00;;;3.60;;
1799;SDS011;919;48.274;12.292;2022-11-20T02:13:21;5.47;;;2.87;;
1799;SDS011;919;48.274;12.292;2022-11-20T02:16:08;3.70;;;3.20;;
1799;SDS011;919;48.274;12.292;2022-11-20T02:18:38;5.60;;;3.50;;
1799;SDS011;919;48.274;12.292;2022-11-20T02:21:07;4.53;;;3.60;;
1799;SDS011;919;48.274;12.292;2022-11-20T02:26:30;3.37;;;3.07;;
1799;SDS011;919;48.274;12.292;2022-11-20T02:28:59;5.43;;;3.50;;
1799;SDS011;919;48.274;12.292;2022-11-20T02:31:28;9.83;;;4.20;;
1799;SDS011;919;48.274;12.292;2022-11-20T02:33:55;4.73;;;3.37;;
1799;SDS011;919;48.274;12.292;2022-11-20T02:36:23;4.80;;;3.77;;
1799;SDS011;919;48.274;12.292;2022-11-20T02:38:52;4.60;;;4.00;;
1799;SDS011;919;48.274;12.292;2022-11-20T02:41:20;4.00;;;3.60;;
1799;SDS011;919;48.274;12.292;2022-11-20T02:43:48;4.77;;;3.60;;
1799;SDS011;919;48.274;12.292;2022-11-20T02:46:14;3.03;;;2.80;;
1799;SDS011;919;48.274;12.292;2022-11-20T02:48:41;4.67;;;3.60;;
1799;SDS011;919;48.274;12.292;2022-11-20T02:51:08;4.60;;;4.20;;
1799;SDS011;919;48.274;12.292;2022-11-20T02:53:34;4.07;;;3.73;;
1799;SDS011;919;48.274;12.292;2022-11-20T02:56:01;5.90;;;4.30;;
1799;SDS011;919;48.274;12.292;2022-11-20T02:58:29;4.67;;;3.70;;
1799;SDS011;919;48.274;12.292;2022-11-20T03:00:56;6.20;;;3.67;;
1799;SDS011;919;48.274;12.292;2022-11-20T03:03:23;3.87;;;3.47;;
1799;SDS011;919;48.274;12.292;2022-11-20T03:05:50;4.83;;;3.50;;
1799;SDS011;919;48.274;12.292;2022-11-20T03:08:17;3.07;;;2.83;;
1799;SDS011;919;48.274;12.292;2022-11-20T03:10:44;13.53;;;3.57;;
1799;SDS011;919;48.274;12.292;2022-11-20T03:13:10;3.30;;;3.00;;
1799;SDS011;919;48.274;12.292;2022-11-20T03:15:38;3.70;;;3.23;;
1799;SDS011;919;48.274;12.292;2022-11-20T03:18:05;4.80;;;3.03;;
1799;SDS011;919;48.274;12.292;2022-11-20T03:20:32;2.77;;;2.57;;
1799;SDS011;919;48.274;12.292;2022-11-20T03:23:00;2.97;;;2.60;;
1799;SDS011;919;48.274;12.292;2022-11-20T03:25:26;2.60;;;2.40;;
1799;SDS011;919;48.274;12.292;2022-11-20T03:27:53;2.50;;;2.30;;
1799;SDS011;919;48.274;12.292;2022-11-20T03:30:20;5.93;;;2.50;;
1799;SDS011;919;48.274;12.292;2022-11-20T03:32:49;3.23;;;2.93;;
1799;SDS011;919;48.274;12.292;2022-11-20T03:35:19;2.90;;;2.60;;
1799;SDS011;919;48.274;12.292;2022-11-20T03:37:46;3.17;;;2.80;;
1799;SDS011;919;48.274;12.292;2022-11-20T03:40:13;2.80;;;2.60;;
1799;SDS011;919;48.274;12.292;2022-11-20T03:42:40;2.40;;;2.20;;
1799;SDS011;919;48.274;12.292;2022-11-20T03:45:13;3.17;;;2.43;;
1799;SDS011;919;48.274;12.292;2022-11-20T03:47:40;3.03;;;2.73;;
1799;SDS011;919;48.274;12.292;2022-11-20T03:50:09;3.20;;;2.90;;
1799;SDS011;919;48.274;12.292;2022-11-20T03:52:38;4.93;;;2.23;;
1799;SDS011;919;48.274;12.292;2022-11-20T03:55:05;3.43;;;2.10;;
1799;SDS011;919;48.274;12.292;2022-11-20T03:57:32;3.10;;;2.83;;
1799;SDS011;919;48.274;12.292;2022-11-20T03:59:58;2.57;;;2.37;;
1799;SDS011;919;48.274;12.292;2022-11-20T04:02:25;3.07;;;2.77;;
1799;SDS011;919;48.274;12.292;2022-11-20T04:04:52;2.60;;;2.40;;
1799;SDS011;919;48.274;12.292;2022-11-20T04:07:20;2.90;;;2.60;;
1799;SDS011;919;48.274;12.292;2022-11-20T04:09:47;3.00;;;2.80;;
1799;SDS011;919;48.274;12.292;2022-11-20T04:12:14;3.10;;;2.57;;
1799;SDS011;919;48.274;12.292;2022-11-20T04:14:41;4.33;;;3.23;;
1799;SDS011;919;48.274;12.292;2022-11-20T04:17:07;4.47;;;2.83;;
1799;SDS011;919;48.274;12.292;2022-11-20T04:19:34;2.67;;;2.47;;
1799;SDS011;919;48.274;12.292;2022-11-20T04:22:01;2.70;;;2.50;;
1799;SDS011;919;48.274;12.292;2022-11-20T04:24:29;2.97;;;2.67;;
1799;SDS011;919;48.274;12.292;2022-11-20T04:26:56;4.10;;;2.73;;
1799;SDS011;919;48.274;12.292;2022-11-20T04:29:23;5.33;;;3.10;;
1799;SDS011;919;48.274;12.292;2022-11-20T04:31:49;2.83;;;2.40;;
1799;SDS011;919;48.274;12.292;2022-11-20T04:34:16;2.70;;;2.50;;
1799;SDS011;919;48.274;12.292;2022-11-20T04:36:43;6.70;;;3.20;;
1799;SDS011;919;48.274;12.292;2022-11-20T04:39:13;4.60;;;2.90;;
1799;SDS011;919;48.274;12.292;2022-11-20T04:41:43;3.07;;;2.80;;
1799;SDS011;919;48.274;12.292;2022-11-20T04:44:10;2.83;;;2.43;;
1799;SDS011;919;48.274;12.292;2022-11-20T04:46:37;5.80;;;2.90;;
1799;SDS011;919;48.274;12.292;2022-11-20T04:49:05;3.47;;;3.17;;
1799;SDS011;919;48.274;12.292;2022-11-20T04:51:33;3.70;;;2.70;;
1799;SDS011;919;48.274;12.292;2022-11-20T04:54:00;4.70;;;3.10;;
1799;SDS011;919;48.274;12.292;2022-11-20T04:56:27;3.67;;;3.10;;
1799;SDS011;919;48.274;12.292;2022-11-20T04:58:55;2.63;;;2.43;;
1799;SDS011;919;48.274;12.292;2022-11-20T05:01:25;2.63;;;2.33;;
1799;SDS011;919;48.274;12.292;2022-11-20T05:03:52;3.80;;;3.13;;
1799;SDS011;919;48.274;12.292;2022-11-20T05:06:20;3.83;;;3.43;;
1799;SDS011;919;48.274;12.292;2022-11-20T05:08:47;3.70;;;2.80;;
1799;SDS011;919;48.274;12.292;2022-11-20T05:11:15;3.47;;;3.17;;
1799;SDS011;919;48.274;12.292;2022-11-20T05:13:43;3.63;;;2.83;;
1799;SDS011;919;48.274;12.292;2022-11-20T05:16:12;3.40;;;3.03;;
1799;SDS011;919;48.274;12.292;2022-11-20T05:18:40;3.43;;;2.90;;
1799;SDS011;919;48.274;12.292;2022-11-20T05:21:08;4.13;;;3.47;;
1799;SDS011;919;48.274;12.292;2022-11-20T05:23:35;2.90;;;2.70;;
1799;SDS011;919;48.274;12.292;2022-11-20T05:26:03;3.10;;;2.90;;
1799;SDS011;919;48.274;12.292;2022-11-20T05:28:31;3.80;;;2.93;;
1799;SDS011;919;48.274;12.292;2022-11-20T05:31:03;2.80;;;2.50;;
1799;SDS011;919;48.274;12.292;2022-11-20T05:33:33;3.20;;;2.90;;
1799;SDS011;919;48.274;12.292;2022-11-20T05:36:00;3.77;;;2.47;;
1799;SDS011;919;48.274;12.292;2022-11-20T05:38:28;4.23;;;2.80;;
1799;SDS011;919;48.274;12.292;2022-11-20T05:40:55;2.97;;;2.67;;
1799;SDS011;919;48.274;12.292;2022-11-20T05:43:28;2.90;;;2.70;;
1799;SDS011;919;48.274;12.292;2022-11-20T05:45:58;3.40;;;2.90;;
1799;SDS011;919;48.274;12.292;2022-11-20T05:48:25;3.40;;;2.70;;
1799;SDS011;919;48.274;12.292;2022-11-20T05:50:53;3.50;;;2.93;;
1799;SDS011;919;48.274;12.292;2022-11-20T05:53:22;3.33;;;3.03;;
1799;SDS011;919;48.274;12.292;2022-11-20T05:55:55;5.10;;;3.00;;
1799;SDS011;919;48.274;12.292;2022-11-20T05:58:23;3.73;;;3.30;;
1799;SDS011;919;48.274;12.292;2022-11-20T06:00:49;2.77;;;2.50;;
1799;SDS011;919;48.274;12.292;2022-11-20T06:03:16;2.93;;;2.47;;
1799;SDS011;919;48.274;12.292;2022-11-20T06:05:43;2.93;;;2.50;;
1799;SDS011;919;48.274;12.292;2022-11-20T06:08:11;2.40;;;2.20;;
1799;SDS011;919;48.274;12.292;2022-11-20T06:10:38;2.23;;;2.03;;
1799;SDS011;919;48.274;12.292;2022-11-20T06:13:05;2.53;;;2.33;;
1799;SDS011;919;48.274;12.292;2022-11-20T06:15:31;3.27;;;2.97;;
1799;SDS011;919;48.274;12.292;2022-11-20T06:17:58;4.07;;;2.43;;
1799;SDS011;919;48.274;12.292;2022-11-20T06:20:25;3.23;;;2.53;;
1799;SDS011;919;48.274;12.292;2022-11-20T06:22:52;2.43;;;2.23;;
1799;SDS011;919;48.274;12.292;2022-11-20T06:25:20;3.20;;;2.73;;
1799;SDS011;919;48.274;12.292;2022-11-20T06:27:47;2.70;;;2.50;;
1799;SDS011;919;48.274;12.292;2022-11-20T06:30:14;3.17;;;2.43;;
1799;SDS011;919;48.274;12.292;2022-11-20T06:32:41;2.97;;;2.67;;
1799;SDS011;919;48.274;12.292;2022-11-20T06:35:08;3.93;;;2.90;;
1799;SDS011;919;48.274;12.292;2022-11-20T06:37:35;3.83;;;3.47;;
1799;SDS011;919;48.274;12.292;2022-11-20T06:40:02;2.80;;;2.57;;
1799;SDS011;919;48.274;12.292;2022-11-20T06:42:31;2.53;;;2.33;;
1799;SDS011;919;48.274;12.292;2022-11-20T06:44:58;3.53;;;2.57;;
1799;SDS011;919;48.274;12.292;2022-11-20T06:47:25;3.77;;;2.83;;
1799;SDS011;919;48.274;12.292;2022-11-20T06:49:52;2.70;;;2.50;;
1799;SDS011;919;48.274;12.292;2022-11-20T06:52:19;2.60;;;2.40;;
1799;SDS011;919;48.274;12.292;2022-11-20T06:54:45;3.30;;;2.47;;
1799;SDS011;919;48.274;12.292;2022-11-20T06:57:12;2.93;;;2.70;;
1799;SDS011;919;48.274;12.292;2022-11-20T06:59:40;2.63;;;2.43;;
1799;SDS011;919;48.274;12.292;2022-11-20T07:02:09;2.73;;;2.60;;
1799;SDS011;919;48.274;12.292;2022-11-20T07:04:36;2.93;;;2.20;;
1799;SDS011;919;48.274;12.292;2022-11-20T07:07:03;2.70;;;2.50;;
1799;SDS011;919;48.274;12.292;2022-11-20T07:09:31;2.70;;;2.50;;
1799;SDS011;919;48.274;12.292;2022-11-20T07:11:57;5.20;;;3.30;;
1799;SDS011;919;48.274;12.292;2022-11-20T07:14:25;3.07;;;2.63;;
1799;SDS011;919;48.274;12.292;2022-11-20T07:16:53;3.07;;;2.50;;
1799;SDS011;919;48.274;12.292;2022-11-20T07:19:20;2.70;;;2.47;;
1799;SDS011;919;48.274;12.292;2022-11-20T07:21:47;2.87;;;2.67;;
1799;SDS011;919;48.274;12.292;2022-11-20T07:24:14;3.23;;;2.80;;
1799;SDS011;919;48.274;12.292;2022-11-20T07:26:40;2.63;;;2.43;;
1799;SDS011;919;48.274;12.292;2022-11-20T07:29:07;2.03;;;1.93;;
1799;SDS011;919;48.274;12.292;2022-11-20T07:31:34;3.33;;;3.03;;
1799;SDS011;919;48.274;12.292;2022-11-20T07:34:02;2.47;;;2.23;;
1799;SDS011;919;48.274;12.292;2022-11-20T07:36:29;2.90;;;2.60;;
1799;SDS011;919;48.274;12.292;2022-11-20T07:38:56;2.43;;;2.23;;
1799;SDS011;919;48.274;12.292;2022-11-20T07:41:22;7.43;;;2.90;;
1799;SDS011;919;48.274;12.292;2022-11-20T07:43:49;2.97;;;2.10;;
1799;SDS011;919;48.274;12.292;2022-11-20T07:46:16;2.40;;;2.20;;
1799;SDS011;919;48.274;12.292;2022-11-20T07:48:43;2.70;;;2.30;;
1799;SDS011;919;48.274;12.292;2022-11-20T07:51:11;4.27;;;2.83;;
1799;SDS011;919;48.274;12.292;2022-11-20T07:53:38;2.60;;;2.40;;
1799;SDS011;919;48.274;12.292;2022-11-20T07:56:05;3.03;;;2.77;;
1799;SDS011;919;48.274;12.292;2022-11-20T07:58:32;2.30;;;2.10;;
1799;SDS011;919;48.274;12.292;2022-11-20T08:01:02;5.63;;;2.90;;
1799;SDS011;919;48.274;12.292;2022-11-20T08:03:29;3.40;;;3.10;;
1799;SDS011;919;48.274;12.292;2022-11-20T08:05:58;2.50;;;2.30;;
1799;SDS011;919;48.274;12.292;2022-11-20T08:08:27;2.53;;;2.33;;
1799;SDS011;919;48.274;12.292;2022-11-20T08:10:55;3.00;;;2.10;;
1799;SDS011;919;48.274;12.292;2022-11-20T08:13:43;3.50;;;2.80;;
1799;SDS011;919;48.274;12.292;2022-11-20T08:16:27;3.90;;;1.93;;
1799;SDS011;919;48.274;12.292;2022-11-20T08:18:54;2.23;;;2.03;;
1799;SDS011;919;48.274;12.292;2022-11-20T08:21:21;2.50;;;2.30;;
1799;SDS011;919;48.274;12.292;2022-11-20T08:23:50;2.53;;;2.33;;
1799;SDS011;919;48.274;12.292;2022-11-20T08:26:17;2.30;;;2.10;;
1799;SDS011;919;48.274;12.292;2022-11-20T08:28:44;4.03;;;2.90;;
1799;SDS011;919;48.274;12.292;2022-11-20T08:31:10;2.10;;;1.90;;
1799;SDS011;919;48.274;12.292;2022-11-20T08:33:37;2.30;;;2.10;;
1799;SDS011;919;48.274;12.292;2022-11-20T08:36:04;2.63;;;2.20;;
1799;SDS011;919;48.274;12.292;2022-11-20T08:38:32;3.90;;;1.90;;
1799;SDS011;919;48.274;12.292;2022-11-20T08:41:00;2.33;;;2.10;;
1799;SDS011;919;48.274;12.292;2022-11-20T08:43:46;2.47;;;2.27;;
1799;SDS011;919;48.274;12.292;2022-11-20T08:46:13;2.27;;;2.07;;
1799;SDS011;919;48.274;12.292;2022-11-20T08:48:40;3.77;;;2.40;;
1799;SDS011;919;48.274;12.292;2022-11-20T08:51:07;2.40;;;2.20;;
1799;SDS011;919;48.274;12.292;2022-11-20T08:53:33;2.60;;;2.40;;
1799;SDS011;919;48.274;12.292;2022-11-20T08:56:02;2.57;;;2.37;;
1799;SDS011;919;48.274;12.292;2022-11-20T08:58:29;2.10;;;1.93;;
1799;SDS011;919;48.274;12.292;2022-11-20T09:00:55;2.80;;;2.50;;
1799;SDS011;919;48.274;12.292;2022-11-20T09:03:22;3.30;;;2.20;;
1799;SDS011;919;48.274;12.292;2022-11-20T09:05:56;2.23;;;2.03;;
1799;SDS011;919;48.274;12.292;2022-11-20T09:08:26;2.60;;;2.17;;
1799;SDS011;919;48.274;12.292;2022-11-20T09:10:54;3.47;;;2.33;;
1799;SDS011;919;48.274;12.292;2022-11-20T09:13:23;2.97;;;2.17;;
1799;SDS011;919;48.274;12.292;2022-11-20T09:15:54;3.00;;;2.60;;
1799;SDS011;919;48.274;12.292;2022-11-20T09:18:22;3.17;;;2.70;;
1799;SDS011;919;48.274;12.292;2022-11-20T09:20:49;2.30;;;2.20;;
1799;SDS011;919;48.274;12.292;2022-11-20T09:23:16;2.47;;;2.00;;
1799;SDS011;919;48.274;12.292;2022-11-20T09:25:43;2.00;;;1.90;;
1799;SDS011;919;48.274;12.292;2022-11-20T09:28:09;2.57;;;2.37;;
1799;SDS011;919;48.274;12.292;2022-11-20T09:30:38;2.23;;;2.03;;
1799;SDS011;919;48.274;12.292;2022-11-20T09:33:05;2.10;;;1.90;;
1799;SDS011;919;48.274;12.292;2022-11-20T09:35:32;2.30;;;2.13;;
1799;SDS011;919;48.274;12.292;2022-11-20T09:38:03;2.10;;;1.60;;
1799;SDS011;919;48.274;12.292;2022-11-20T09:40:31;2.43;;;2.03;;
1799;SDS011;919;48.274;12.292;2022-11-20T09:43:01;2.10;;;1.90;;
1799;SDS011;919;48.274;12.292;2022-11-20T09:45:38;2.10;;;1.90;;
1799;SDS011;919;48.274;12.292;2022-11-20T09:48:18;2.03;;;1.93;;
1799;SDS011;919;48.274;12.292;2022-11-20T09:50:54;2.60;;;2.20;;
1799;SDS011;919;48.274;12.292;2022-11-20T09:53:29;2.27;;;1.93;;
1799;SDS011;919;48.274;12.292;2022-11-20T09:56:01;1.80;;;1.70;;
1799;SDS011;919;48.274;12.292;2022-11-20T09:58:31;2.80;;;1.90;;
1799;SDS011;919;48.274;12.292;2022-11-20T10:01:07;2.13;;;2.03;;
1799;SDS011;919;48.274;12.292;2022-11-20T10:03:39;2.90;;;2.27;;
1799;SDS011;919;48.274;12.292;2022-11-20T10:06:15;1.90;;;1.80;;
1799;SDS011;919;48.274;12.292;2022-11-20T10:08:45;1.57;;;1.47;;
1799;SDS011;919;48.274;12.292;2022-11-20T10:11:21;2.00;;;1.80;;
1799;SDS011;919;48.274;12.292;2022-11-20T10:13:57;2.13;;;1.70;;
1799;SDS011;919;48.274;12.292;2022-11-20T10:16:38;1.87;;;1.77;;
1799;SDS011;919;48.274;12.292;2022-11-20T10:19:16;1.60;;;1.50;;
1799;SDS011;919;48.274;12.292;2022-11-20T10:21:58;2.20;;;2.00;;
1799;SDS011;919;48.274;12.292;2022-11-20T10:24:44;2.10;;;1.80;;
1799;SDS011;919;48.274;12.292;2022-11-20T10:27:38;2.10;;;1.87;;
1799;SDS011;919;48.274;12.292;2022-11-20T10:30:12;3.23;;;1.40;;
1799;SDS011;919;48.274;12.292;2022-11-20T10:32:43;5.20;;;2.07;;
1799;SDS011;919;48.274;12.292;2022-11-20T10:35:18;1.57;;;1.47;;
1799;SDS011;919;48.274;12.292;2022-11-20T10:37:48;1.50;;;1.50;;
1799;SDS011;919;48.274;12.292;2022-11-20T10:40:21;2.23;;;1.80;;
1799;SDS011;919;48.274;12.292;2022-11-20T10:42:53;2.83;;;1.83;;
1799;SDS011;919;48.274;12.292;2022-11-20T10:45:31;2.27;;;1.67;;
1799;SDS011;919;48.274;12.292;2022-11-20T10:48:09;1.60;;;1.50;;
1799;SDS011;919;48.274;12.292;2022-11-20T10:50:42;1.10;;;1.10;;
1799;SDS011;919;48.274;12.292;2022-11-20T10:53:23;1.80;;;1.50;;
1799;SDS011;919;48.274;12.292;2022-11-20T10:56:03;1.83;;;1.73;;
1799;SDS011;919;48.274;12.292;2022-11-20T10:58:35;1.77;;;1.67;;
1799;SDS011;919;48.274;12.292;2022-11-20T11:01:13;1.57;;;1.47;;
1799;SDS011;919;48.274;12.292;2022-11-20T11:03:42;1.60;;;1.50;;
1799;SDS011;919;48.274;12.292;2022-11-20T11:06:10;1.27;;;1.10;;
1799;SDS011;919;48.274;12.292;2022-11-20T11:08:43;1.40;;;1.30;;
1799;SDS011;919;48.274;12.292;2022-11-20T11:11:18;4.57;;;1.60;;
1799;SDS011;919;48.274;12.292;2022-11-20T11:13:48;2.40;;;2.20;;
1799;SDS011;919;48.274;12.292;2022-11-20T11:16:19;3.30;;;1.63;;
1799;SDS011;919;48.274;12.292;2022-11-20T11:18:48;4.70;;;2.10;;
1799;SDS011;919;48.274;12.292;2022-11-20T11:21:20;1.60;;;1.50;;
1799;SDS011;919;48.274;12.292;2022-11-20T11:23:56;1.40;;;1.30;;
1799;SDS011;919;48.274;12.292;2022-11-20T11:26:25;2.00;;;1.43;;
1799;SDS011;919;48.274;12.292;2022-11-20T11:28:52;5.73;;;1.60;;
1799;SDS011;919;48.274;12.292;2022-11-20T11:31:24;1.47;;;1.37;;
1799;SDS011;919;48.274;12.292;2022-11-20T11:34:03;1.17;;;1.17;;
1799;SDS011;919;48.274;12.292;2022-11-20T11:36:31;1.80;;;1.70;;
1799;SDS011;919;48.274;12.292;2022-11-20T11:39:01;2.23;;;1.80;;
1799;SDS011;919;48.274;12.292;2022-11-20T11:41:31;1.90;;;1.80;;
1799;SDS011;919;48.274;12.292;2022-11-20T11:44:01;1.70;;;1.60;;
1799;SDS011;919;48.274;12.292;2022-11-20T11:46:58;1.63;;;1.53;;
1799;SDS011;919;48.274;12.292;2022-11-20T11:49:27;1.20;;;1.20;;
1799;SDS011;919;48.274;12.292;2022-11-20T11:52:02;2.00;;;1.90;;
1799;SDS011;919;48.274;12.292;2022-11-20T11:54:35;1.77;;;1.67;;
1799;SDS011;919;48.274;12.292;2022-11-20T11:57:10;1.70;;;1.37;;
1799;SDS011;919;48.274;12.292;2022-11-20T11:59:44;1.77;;;1.60;;
1799;SDS011;919;48.274;12.292;2022-11-20T12:02:27;1.60;;;1.50;;
1799;SDS011;919;48.274;12.292;2022-11-20T12:05:02;1.57;;;1.47;;
1799;SDS011;919;48.274;12.292;2022-11-20T12:07:37;2.30;;;1.70;;
1799;SDS011;919;48.274;12.292;2022-11-20T12:10:12;1.57;;;1.30;;
1799;SDS011;919;48.274;12.292;2022-11-20T12:12:44;1.80;;;1.33;;
1799;SDS011;919;48.274;12.292;2022-11-20T12:15:16;2.20;;;1.70;;
1799;SDS011;919;48.274;12.292;2022-11-20T12:17:51;2.00;;;1.77;;
1799;SDS011;919;48.274;12.292;2022-11-20T12:20:19;1.63;;;1.53;;
1799;SDS011;919;48.274;12.292;2022-11-20T12:22:48;2.00;;;1.57;;
1799;SDS011;919;48.274;12.292;2022-11-20T12:25:22;2.53;;;2.33;;
1799;SDS011;919;48.274;12.292;2022-11-20T12:27:57;1.40;;;1.30;;
1799;SDS011;919;48.274;12.292;2022-11-20T12:30:48;1.40;;;1.30;;
1799;SDS011;919;48.274;12.292;2022-11-20T12:33:28;1.13;;;1.10;;
1799;SDS011;919;48.274;12.292;2022-11-20T12:36:18;1.30;;;1.03;;
1799;SDS011;919;48.274;12.292;2022-11-20T12:38:57;1.53;;;1.43;;
1799;SDS011;919;48.274;12.292;2022-11-20T12:41:45;1.40;;;1.30;;
1799;SDS011;919;48.274;12.292;2022-11-20T12:47:39;1.40;;;1.30;;
1799;SDS011;919;48.274;12.292;2022-11-20T12:50:17;1.63;;;1.00;;
1799;SDS011;919;48.274;12.292;2022-11-20T12:52:56;1.53;;;1.20;;
1799;SDS011;919;48.274;12.292;2022-11-20T12:55:32;2.87;;;1.43;;
1799;SDS011;919;48.274;12.292;2022-11-20T12:58:09;1.07;;;0.97;;
1799;SDS011;919;48.274;12.292;2022-11-20T13:00:39;1.20;;;1.20;;
1799;SDS011;919;48.274;12.292;2022-11-20T13:03:23;1.37;;;1.20;;
1799;SDS011;919;48.274;12.292;2022-11-20T13:06:13;1.37;;;1.27;;
1799;SDS011;919;48.274;12.292;2022-11-20T13:08:44;1.70;;;1.60;;
1799;SDS011;919;48.274;12.292;2022-11-20T13:11:17;1.33;;;1.30;;
1799;SDS011;919;48.274;12.292;2022-11-20T13:13:59;1.67;;;1.57;;
1799;SDS011;919;48.274;12.292;2022-11-20T13:16:37;1.53;;;1.33;;
1799;SDS011;919;48.274;12.292;2022-11-20T13:19:09;1.73;;;1.63;;
1799;SDS011;919;48.274;12.292;2022-11-20T13:21:39;1.40;;;1.23;;
1799;SDS011;919;48.274;12.292;2022-11-20T13:24:20;1.63;;;1.37;;
1799;SDS011;919;48.274;12.292;2022-11-20T13:26:59;1.23;;;1.10;;
1799;SDS011;919;48.274;12.292;2022-11-20T13:29:28;1.30;;;1.20;;
1799;SDS011;919;48.274;12.292;2022-11-20T13:32:01;2.50;;;1.80;;
1799;SDS011;919;48.274;12.292;2022-11-20T13:34:30;1.40;;;1.30;;
1799;SDS011;919;48.274;12.292;2022-11-20T13:36:58;1.50;;;1.30;;
1799;SDS011;919;48.274;12.292;2022-11-20T13:39:30;1.57;;;1.47;;
1799;SDS011;919;48.274;12.292;2022-11-20T13:41:58;1.60;;;1.50;;
1799;SDS011;919;48.274;12.292;2022-11-20T13:44:27;1.10;;;1.10;;
1799;SDS011;919;48.274;12.292;2022-11-20T13:46:59;2.20;;;1.77;;
1799;SDS011;919;48.274;12.292;2022-11-20T13:49:27;1.40;;;1.30;;
1799;SDS011;919;48.274;12.292;2022-11-20T13:51:59;1.30;;;1.30;;
1799;SDS011;919;48.274;12.292;2022-11-20T13:57:52;1.30;;;1.20;;
1799;SDS011;919;48.274;12.292;2022-11-20T14:00:29;1.70;;;1.60;;
1799;SDS011;919;48.274;12.292;2022-11-20T14:03:01;1.60;;;1.50;;
1799;SDS011;919;48.274;12.292;2022-11-20T14:05:34;3.03;;;1.20;;
1799;SDS011;919;48.274;12.292;2022-11-20T14:08:04;1.60;;;1.50;;
1799;SDS011;919;48.274;12.292;2022-11-20T14:10:34;1.23;;;1.20;;
1799;SDS011;919;48.274;12.292;2022-11-20T14:13:09;1.10;;;1.03;;
1799;SDS011;919;48.274;12.292;2022-11-20T14:15:41;1.60;;;1.50;;
1799;SDS011;919;48.274;12.292;2022-11-20T14:18:12;1.77;;;1.67;;
1799;SDS011;919;48.274;12.292;2022-11-20T14:20:40;1.50;;;1.40;;
1799;SDS011;919;48.274;12.292;2022-11-20T14:23:09;1.27;;;1.27;;
1799;SDS011;919;48.274;12.292;2022-11-20T14:25:37;1.93;;;1.50;;
1799;SDS011;919;48.274;12.292;2022-11-20T14:28:10;1.30;;;1.20;;
1799;SDS011;919;48.274;12.292;2022-11-20T14:30:46;1.27;;;1.10;;
1799;SDS011;919;48.274;12.292;2022-11-20T14:33:15;1.20;;;1.20;;
1799;SDS011;919;48.274;12.292;2022-11-20T14:35:44;3.40;;;1.83;;
1799;SDS011;919;48.274;12.292;2022-11-20T14:38:13;1.23;;;1.20;;
1799;SDS011;919;48.274;12.292;2022-11-20T14:40:43;1.47;;;1.30;;
1799;SDS011;919;48.274;12.292;2022-11-20T14:43:17;2.00;;;1.67;;
1799;SDS011;919;48.274;12.292;2022-11-20T14:45:47;1.90;;;1.67;;
1799;SDS011;919;48.274;12.292;2022-11-20T14:48:28;1.73;;;1.03;;
1799;SDS011;919;48.274;12.292;2022-11-20T14:50:57;1.50;;;1.40;;
1799;SDS011;919;48.274;12.292;2022-11-20T14:53:25;1.03;;;1.00;;
1799;SDS011;919;48.274;12.292;2022-11-20T14:55:57;1.27;;;1.20;;
1799;SDS011;919;48.274;12.292;2022-11-20T14:58:26;2.53;;;1.30;;
1799;SDS011;919;48.274;12.292;2022-11-20T15:00:54;1.30;;;1.20;;
1799;SDS011;919;48.274;12.292;2022-11-20T15:03:22;1.40;;;1.30;;
1799;SDS011;919;48.274;12.292;2022-11-20T15:05:49;1.20;;;1.20;;
1799;SDS011;919;48.274;12.292;2022-11-20T15:08:16;1.30;;;1.20;;
1799;SDS011;919;48.274;12.292;2022-11-20T15:10:46;2.90;;;1.87;;
1799;SDS011;919;48.274;12.292;2022-11-20T15:13:18;1.37;;;1.37;;
1799;SDS011;919;48.274;12.292;2022-11-20T15:15:52;2.43;;;1.70;;
1799;SDS011;919;48.274;12.292;2022-11-20T15:18:20;1.50;;;1.40;;
1799;SDS011;919;48.274;12.292;2022-11-20T15:20:49;1.80;;;1.70;;
1799;SDS011;919;48.274;12.292;2022-11-20T15:23:17;1.40;;;1.40;;
1799;SDS011;919;48.274;12.292;2022-11-20T15:25:45;1.70;;;1.60;;
1799;SDS011;919;48.274;12.292;2022-11-20T15:28:15;2.13;;;2.03;;
1799;SDS011;919;48.274;12.292;2022-11-20T15:30:45;3.60;;;2.10;;
1799;SDS011;919;48.274;12.292;2022-11-20T15:33:13;1.40;;;1.30;;
1799;SDS011;919;48.274;12.292;2022-11-20T15:35:40;1.73;;;1.63;;
1799;SDS011;919;48.274;12.292;2022-11-20T15:38:07;2.20;;;1.97;;
1799;SDS011;919;48.274;12.292;2022-11-20T15:40:34;2.53;;;2.33;;
1799;SDS011;919;48.274;12.292;2022-11-20T15:43:01;2.50;;;2.00;;
1799;SDS011;919;48.274;12.292;2022-11-20T15:45:36;2.13;;;1.50;;